Time;durP1;ratioP1;P1;durP2;ratioP2;P2;SDS_P1;SDS_P2;PMS_P1;PMS_P2;Temp;Humidity;BMP_temperature;BMP_pressure;BME280_temperature;BME280_humidity;BME280_pressure;Samples;Min_cycle;Max_cycle;Signal;HPM_P1;HPM_P2
2021/07/25 00:02:19;;;;;;;7.00;6.30;;;;;;;17.81;100.00;98383.78;10444756;28;20187;-80
2021/07/25 00:07:38;;;;;;;7.33;6.63;;;;;;;17.70;100.00;98383.50;10460922;28;20201;-78
2021/07/25 00:12:56;;;;;;;8.00;7.20;;;;;;;17.66;100.00;98382.09;10459047;28;20183;-81
2021/07/25 00:18:16;;;;;;;9.47;6.83;;;;;;;17.59;100.00;98372.03;10444821;28;20290;-79
2021/07/25 00:23:35;;;;;;;10.20;6.87;;;;;;;17.56;100.00;98358.28;10460133;28;20176;-79
2021/07/25 00:28:54;;;;;;;7.77;6.57;;;;;;;17.51;100.00;98370.06;10458755;28;20219;-83
2021/07/25 00:34:13;;;;;;;9.27;6.93;;;;;;;17.43;100.00;98379.94;10459856;28;20984;-83
2021/07/25 00:39:32;;;;;;;8.00;7.07;;;;;;;17.38;100.00;98396.44;10456761;28;20183;-81
2021/07/25 00:44:51;;;;;;;13.17;7.93;;;;;;;17.22;100.00;98408.56;10416778;28;20279;-78
2021/07/25 00:50:10;;;;;;;11.77;6.63;;;;;;;17.13;100.00;98410.56;10417219;28;20552;-79
2021/07/25 00:55:29;;;;;;;9.70;7.07;;;;;;;17.26;100.00;98425.88;10402602;28;20682;-78
2021/07/25 01:00:48;;;;;;;10.03;6.87;;;;;;;17.29;100.00;98424.22;10416440;28;20168;-80
2021/07/25 01:06:07;;;;;;;10.80;7.53;;;;;;;17.19;100.00;98428.97;10417392;28;20179;-79
2021/07/25 01:11:32;;;;;;;13.03;7.10;;;;;;;17.17;100.00;98433.41;10435079;28;20179;-77
2021/07/25 01:16:51;;;;;;;11.87;7.53;;;;;;;17.40;100.00;98430.88;10456419;28;20211;-78
2021/07/25 01:22:10;;;;;;;21.57;7.50;;;;;;;17.37;100.00;98428.25;10457982;28;20175;-78
2021/07/25 01:27:35;;;;;;;11.93;8.33;;;;;;;17.22;100.00;98422.47;10442736;28;20180;-79
2021/07/25 01:32:58;;;;;;;8.77;6.90;;;;;;;17.08;100.00;98414.72;10454974;28;20215;-77
2021/07/25 01:38:17;;;;;;;11.23;8.20;;;;;;;17.00;100.00;98419.00;10456929;28;20677;-80
2021/07/25 01:43:46;;;;;;;12.70;8.47;;;;;;;17.04;100.00;98416.06;10455961;28;20195;-80
2021/07/25 01:49:05;;;;;;;9.30;7.03;;;;;;;16.97;100.00;98417.13;10456998;28;20184;-83
2021/07/25 01:54:24;;;;;;;13.23;7.60;;;;;;;16.96;100.00;98407.25;10456771;28;20175;-81
2021/07/25 01:59:43;;;;;;;13.00;8.47;;;;;;;17.07;100.00;98413.16;10455157;28;20225;-82
2021/07/25 02:05:05;;;;;;;12.27;8.13;;;;;;;16.87;100.00;98418.34;10429842;28;20184;-80
2021/07/25 02:10:24;;;;;;;13.10;7.43;;;;;;;16.85;100.00;98412.47;10415024;28;20618;-79
2021/07/25 02:15:43;;;;;;;15.93;7.77;;;;;;;16.83;100.00;98416.94;10413462;28;20667;-82
2021/07/25 02:21:02;;;;;;;10.10;7.60;;;;;;;16.80;100.00;98420.63;10414946;28;20172;-80
2021/07/25 02:26:21;;;;;;;17.90;8.97;;;;;;;16.79;100.00;98425.41;10414854;28;20168;-79
2021/07/25 02:31:41;;;;;;;10.20;7.60;;;;;;;16.78;100.00;98436.94;10413041;28;20268;-81
2021/07/25 02:36:59;;;;;;;11.43;8.50;;;;;;;16.71;100.00;98440.00;10414310;28;20247;-78
2021/07/25 02:42:18;;;;;;;15.20;8.10;;;;;;;16.68;100.00;98451.25;10414418;28;20231;-79
2021/07/25 02:47:37;;;;;;;12.97;9.27;;;;;;;16.69;100.00;98455.59;10432503;28;20175;-80
2021/07/25 02:52:57;;;;;;;19.27;9.43;;;;;;;16.69;100.00;98456.34;10455514;28;20179;-79
2021/07/25 02:58:15;;;;;;;18.90;9.60;;;;;;;16.72;100.00;98457.47;10453638;28;20289;-80
2021/07/25 03:03:34;;;;;;;20.90;8.63;;;;;;;16.71;100.00;98455.91;10425969;28;20180;-79
2021/07/25 03:08:53;;;;;;;23.40;8.90;;;;;;;16.75;100.00;98456.53;10414059;28;20183;-79
2021/07/25 03:14:12;;;;;;;11.97;8.30;;;;;;;16.81;100.00;98459.03;10420621;28;20176;-79
2021/07/25 03:19:31;;;;;;;12.40;8.47;;;;;;;16.83;100.00;98456.59;10421706;28;20176;-79
2021/07/25 03:24:50;;;;;;;11.23;7.20;;;;;;;16.84;100.00;98455.34;10406301;28;20172;-78
2021/07/25 03:30:09;;;;;;;13.20;8.10;;;;;;;16.89;100.00;98457.53;10419543;28;20693;-78
2021/07/25 03:35:28;;;;;;;9.97;6.90;;;;;;;16.93;100.00;98452.63;10450020;28;20665;-78
2021/07/25 03:40:47;;;;;;;19.63;8.07;;;;;;;16.99;100.00;98458.38;10461907;28;20199;-78
2021/07/25 03:46:07;;;;;;;28.30;8.17;;;;;;;17.00;100.00;98460.69;10460374;28;20179;-78
2021/07/25 03:51:26;;;;;;;21.97;7.80;;;;;;;17.06;100.00;98446.97;10461700;28;20168;-79
2021/07/25 03:56:45;;;;;;;10.73;8.07;;;;;;;17.08;100.00;98447.28;10460936;28;20231;-78
2021/07/25 04:02:05;;;;;;;17.93;7.73;;;;;;;17.13;100.00;98443.91;10441071;28;20263;-78
2021/07/25 04:07:24;;;;;;;16.37;9.00;;;;;;;17.21;100.00;98453.50;10419790;28;20626;-79
2021/07/25 04:12:42;;;;;;;18.43;8.57;;;;;;;17.22;100.00;98455.81;10419448;28;20179;-81
2021/07/25 04:18:01;;;;;;;16.73;8.37;;;;;;;17.25;100.00;98449.34;10418845;28;20212;-78
2021/07/25 04:23:20;;;;;;;13.37;7.67;;;;;;;17.21;100.00;98445.94;10419013;28;20246;-82
2021/07/25 04:28:39;;;;;;;15.97;7.57;;;;;;;17.35;100.00;98450.19;10417575;28;20212;-81
2021/07/25 04:33:59;;;;;;;16.60;8.33;;;;;;;17.32;100.00;98454.66;10437511;28;20191;-80
2021/07/25 04:39:18;;;;;;;15.33;8.27;;;;;;;17.30;100.00;98459.88;10459104;28;20207;-79
2021/07/25 04:44:46;;;;;;;16.90;8.30;;;;;;;17.44;100.00;98464.09;10458213;28;20625;-79
2021/07/25 04:50:09;;;;;;;17.27;8.10;;;;;;;17.30;100.00;98471.00;10459432;28;20229;-78
2021/07/25 04:55:34;;;;;;;20.20;7.50;;;;;;;17.37;100.00;98448.47;10458987;28;20203;-79
2021/07/25 05:00:54;;;;;;;9.27;8.20;;;;;;;17.44;100.00;98436.31;10442280;28;20172;-79
2021/07/25 05:06:17;;;;;;;23.07;8.53;;;;;;;17.45;100.00;98415.59;10418342;28;20638;-80
2021/07/25 05:11:47;;;;;;;24.70;8.33;;;;;;;17.42;100.00;98434.00;10417225;28;20180;-79
2021/07/25 05:17:23;;;;;;;20.43;8.70;;;;;;;17.63;100.00;98447.78;10415382;28;20662;-82
2021/07/25 05:22:46;;;;;;;21.03;9.27;;;;;;;17.80;100.00;98451.03;10416974;28;20176;-82
2021/07/25 05:28:06;;;;;;;13.27;8.50;;;;;;;17.88;100.00;98469.00;10415112;28;20191;-80
2021/07/25 05:33:25;;;;;;;12.47;7.73;;;;;;;18.04;100.00;98479.81;10432228;28;20187;-82
2021/07/25 05:38:44;;;;;;;20.20;8.67;;;;;;;18.25;100.00;98467.81;10441644;28;20199;-82
2021/07/25 05:44:03;;;;;;;22.20;8.03;;;;;;;18.47;100.00;98489.44;10456122;28;20195;-81
2021/07/25 05:49:22;;;;;;;11.50;7.93;;;;;;;18.47;100.00;98475.53;10457033;28;20175;-80
2021/07/25 05:54:42;;;;;;;12.77;7.27;;;;;;;18.46;100.00;98478.75;10456958;28;20246;-80
2021/07/25 06:00:01;;;;;;;14.87;7.27;;;;;;;18.44;100.00;98492.41;10455617;28;20168;-80
2021/07/25 06:05:21;;;;;;;12.90;8.60;;;;;;;18.57;100.00;98491.00;10421713;28;20638;-79
2021/07/25 06:10:42;;;;;;;15.30;8.03;;;;;;;18.83;100.00;98474.69;10415290;28;20187;-80
2021/07/25 06:16:01;;;;;;;14.83;7.90;;;;;;;18.94;100.00;98486.88;10398475;28;20207;-81
2021/07/25 06:21:20;;;;;;;16.10;7.83;;;;;;;19.30;100.00;98486.78;10414980;28;20172;-81
2021/07/25 06:26:40;;;;;;;12.80;8.30;;;;;;;19.86;100.00;98478.41;10414687;28;20202;-78
2021/07/25 06:31:58;;;;;;;11.60;7.90;;;;;;;20.47;100.00;98489.59;10419064;28;20611;-82
2021/07/25 06:37:17;;;;;;;12.83;8.00;;;;;;;20.63;100.00;98495.50;10440219;28;20215;-79
2021/07/25 06:42:36;;;;;;;15.47;7.87;;;;;;;20.83;100.00;98500.44;10455683;28;20191;-83
2021/07/25 06:47:55;;;;;;;11.97;7.30;;;;;;;21.04;100.00;98492.44;10456271;28;20183;-81
2021/07/25 06:53:16;;;;;;;11.90;7.57;;;;;;;21.29;100.00;98494.63;10435144;28;20225;-81
2021/07/25 06:58:35;;;;;;;10.87;7.33;;;;;;;21.08;100.00;98495.81;10440370;28;20561;-80
2021/07/25 07:03:54;;;;;;;15.27;8.37;;;;;;;21.10;100.00;98489.75;10463104;28;20266;-79
2021/07/25 07:09:13;;;;;;;9.40;7.93;;;;;;;20.93;100.00;98488.69;10429638;28;20634;-79
2021/07/25 07:14:32;;;;;;;16.63;9.27;;;;;;;20.90;100.00;98492.47;10420276;28;20206;-80
2021/07/25 07:19:51;;;;;;;17.20;8.60;;;;;;;21.39;100.00;98492.53;10421442;28;20180;-81
2021/07/25 07:25:10;;;;;;;10.47;9.03;;;;;;;21.42;100.00;98497.13;10421121;28;20180;-80
2021/07/25 07:30:29;;;;;;;11.40;9.57;;;;;;;21.11;100.00;98485.69;10419395;28;20212;-80
2021/07/25 07:35:50;;;;;;;12.03;9.60;;;;;;;21.11;100.00;98491.28;10420731;28;20670;-81
2021/07/25 07:41:09;;;;;;;10.83;9.20;;;;;;;22.05;99.70;98494.25;10420737;28;20212;-80
2021/07/25 07:46:28;;;;;;;15.43;9.83;;;;;;;22.76;99.83;98487.47;10404063;28;20175;-78
2021/07/25 07:51:47;;;;;;;10.70;8.10;;;;;;;23.52;89.19;98486.63;10420049;28;20180;-79
2021/07/25 07:57:06;;;;;;;9.10;7.87;;;;;;;23.25;88.00;98478.00;10419127;28;20208;-80
2021/07/25 08:02:25;;;;;;;9.10;8.00;;;;;;;23.26;87.12;98490.78;10418349;28;20247;-81
2021/07/25 08:07:44;;;;;;;8.30;7.50;;;;;;;22.91;88.55;98498.59;10419866;28;20191;-81
2021/07/25 08:13:04;;;;;;;9.63;7.30;;;;;;;22.96;93.11;98500.66;10418264;28;20581;-79
2021/07/25 08:18:23;;;;;;;8.90;7.97;;;;;;;23.50;91.19;98491.97;10418931;28;20239;-79
2021/07/25 08:23:42;;;;;;;7.70;6.80;;;;;;;23.14;89.07;98500.34;10419269;28;20180;-79
2021/07/25 08:29:01;;;;;;;7.80;7.00;;;;;;;22.90;90.78;98486.56;10417719;28;20220;-78
2021/07/25 08:34:20;;;;;;;9.37;7.50;;;;;;;22.74;90.68;98492.78;10444886;28;20191;-77
2021/07/25 08:39:39;;;;;;;16.00;6.47;;;;;;;22.85;91.72;98483.75;10444673;28;20199;-77
2021/07/25 08:44:59;;;;;;;8.03;7.23;;;;;;;23.35;88.35;98483.69;10458255;28;20218;-79
2021/07/25 08:50:27;;;;;;;14.00;8.93;;;;;;;24.54;93.74;98481.31;10459093;28;20179;-75
2021/07/25 08:55:47;;;;;;;7.70;6.80;;;;;;;24.78;78.90;98476.75;10443928;28;20211;-77
2021/07/25 09:01:10;;;;;;;7.40;6.37;;;;;;;24.92;77.29;98494.69;10456659;28;20195;-79
2021/07/25 09:06:47;;;;;;;7.73;7.00;;;;;;;25.98;73.60;98482.38;10458300;28;20625;-79
2021/07/25 09:12:07;;;;;;;7.20;6.60;;;;;;;25.51;74.45;98474.28;10458726;28;20199;-78
2021/07/25 09:17:27;;;;;;;9.47;7.10;;;;;;;25.34;74.50;98487.59;10456667;28;20575;-77
2021/07/25 09:22:48;;;;;;;7.63;6.70;;;;;;;26.16;72.55;98483.88;10458132;28;20176;-77
2021/07/25 09:28:12;;;;;;;9.57;6.10;;;;;;;27.74;63.23;98482.88;10438732;28;20184;-77
2021/07/25 09:33:33;;;;;;;7.13;6.53;;;;;;;28.84;58.49;98482.31;10416458;28;20259;-77
2021/07/25 09:38:54;;;;;;;7.40;6.77;;;;;;;26.18;64.48;98489.75;10400417;28;20208;-76
2021/07/25 09:44:15;;;;;;;6.83;6.30;;;;;;;25.41;68.35;98487.06;10420184;28;20183;-79
2021/07/25 09:49:41;;;;;;;8.10;7.30;;;;;;;26.01;67.43;98489.81;10443436;28;20535;-78
2021/07/25 09:55:03;;;;;;;7.10;6.53;;;;;;;26.15;65.61;98491.56;10426645;28;20293;-77
2021/07/25 10:00:39;;;;;;;6.80;6.20;;;;;;;26.59;68.19;98493.44;10450022;28;20633;-77
2021/07/25 10:05:59;;;;;;;7.30;6.60;;;;;;;27.05;64.20;98478.06;10441015;28;20183;-76
2021/07/25 10:11:19;;;;;;;7.13;6.07;;;;;;;27.51;63.96;98466.63;10456378;28;20167;-77
2021/07/25 10:16:38;;;;;;;7.67;7.10;;;;;;;26.18;70.39;98476.44;10454692;28;20728;-76
2021/07/25 10:21:58;;;;;;;9.07;6.43;;;;;;;28.27;65.65;98460.16;10455855;28;20179;-76
2021/07/25 10:27:19;;;;;;;6.83;6.33;;;;;;;29.14;60.11;98463.09;10455287;28;20187;-78
2021/07/25 10:32:41;;;;;;;8.13;7.40;;;;;;;29.34;53.52;98466.09;10438819;28;20215;-78
2021/07/25 10:38:03;;;;;;;8.40;7.60;;;;;;;29.20;58.20;98466.59;10455422;28;20211;-78
2021/07/25 10:43:26;;;;;;;7.73;7.13;;;;;;;30.05;51.23;98464.06;10449813;28;20624;-79
2021/07/25 10:49:04;;;;;;;7.17;6.67;;;;;;;28.91;52.23;98472.44;10444301;28;20183;-79
2021/07/25 10:54:23;;;;;;;8.43;7.63;;;;;;;27.48;57.08;98467.66;10440161;28;20232;-78
2021/07/25 10:59:48;;;;;;;7.10;6.53;;;;;;;28.13;56.32;98465.47;10425156;28;20219;-77
2021/07/25 11:05:07;;;;;;;8.17;7.37;;;;;;;30.15;50.92;98453.81;10399026;28;20639;-78
2021/07/25 11:10:32;;;;;;;8.03;7.43;;;;;;;30.50;49.91;98465.47;10398788;28;20172;-80
2021/07/25 11:15:52;;;;;;;6.93;6.43;;;;;;;29.48;50.77;98464.09;10412386;28;20212;-77
2021/07/25 11:21:34;;;;;;;7.30;6.80;;;;;;;28.75;53.70;98462.09;10405405;28;20188;-76
2021/07/25 11:26:58;;;;;;;8.27;7.43;;;;;;;28.06;56.93;98454.75;10434183;28;20184;-78
2021/07/25 11:32:36;;;;;;;7.00;6.40;;;;;;;28.31;54.85;98454.22;10430875;28;20227;-79
2021/07/25 11:37:57;;;;;;;7.10;6.20;;;;;;;28.16;55.10;98450.28;10428783;28;20208;-80
2021/07/25 11:43:16;;;;;;;5.73;5.20;;;;;;;28.23;53.10;98452.53;10436093;28;20196;-79
2021/07/25 11:48:36;;;;;;;7.73;7.13;;;;;;;27.01;59.05;98452.16;10435097;28;20187;-77
2021/07/25 11:53:55;;;;;;;9.60;6.60;;;;;;;27.37;57.11;98444.41;10438462;28;20539;-79
2021/07/25 11:59:17;;;;;;;7.07;6.47;;;;;;;27.72;55.36;98442.28;10441853;28;20661;-79
2021/07/25 12:04:41;;;;;;;6.80;6.27;;;;;;;28.75;53.53;98426.06;10441831;28;20191;-78
2021/07/25 12:10:02;;;;;;;6.70;5.90;;;;;;;29.66;53.98;98432.03;10434268;28;20236;-78
2021/07/25 12:15:21;;;;;;;6.00;5.50;;;;;;;29.20;50.28;98424.84;10436091;28;20230;-78
2021/07/25 12:20:43;;;;;;;5.90;5.40;;;;;;;28.26;52.68;98428.84;10431362;28;20184;-78
2021/07/25 12:26:02;;;;;;;7.87;6.17;;;;;;;29.70;52.25;98426.81;10423479;28;20184;-79
2021/07/25 12:31:27;;;;;;;6.77;6.17;;;;;;;28.94;48.02;98438.16;10442044;28;20228;-76
2021/07/25 12:36:47;;;;;;;6.90;5.20;;;;;;;28.72;50.13;98440.50;10432461;28;20207;-78
2021/07/25 12:42:05;;;;;;;5.33;4.93;;;;;;;29.72;49.10;98432.72;10420626;28;20200;-77
2021/07/25 12:47:28;;;;;;;7.40;6.80;;;;;;;29.48;50.47;98435.75;10425653;28;20680;-78
2021/07/25 12:53:29;;;;;;;6.90;6.20;;;;;;;29.37;50.72;98430.25;10420225;28;20184;-78
2021/07/25 12:58:51;;;;;;;6.40;5.90;;;;;;;28.41;50.31;98436.34;10437933;28;20203;-77
2021/07/25 13:04:15;;;;;;;6.77;6.13;;;;;;;28.37;53.22;98440.75;10437282;28;20239;-78
2021/07/25 13:09:34;;;;;;;5.40;5.07;;;;;;;28.82;48.57;98427.53;10438260;28;20603;-77
2021/07/25 13:14:53;;;;;;;6.47;5.97;;;;;;;27.57;52.25;98437.03;10425690;28;20600;-79
2021/07/25 13:20:13;;;;;;;8.13;5.60;;;;;;;27.57;52.90;98450.38;10442692;28;20191;-78
2021/07/25 13:25:32;;;;;;;11.20;5.93;;;;;;;26.73;53.60;98443.09;10433217;28;20275;-77
2021/07/25 13:30:51;;;;;;;6.53;5.93;;;;;;;26.11;55.30;98436.72;10425010;28;20653;-78
2021/07/25 13:36:11;;;;;;;6.17;5.70;;;;;;;26.39;55.86;98428.94;10419714;28;20223;-78
2021/07/25 13:41:30;;;;;;;7.00;6.50;;;;;;;26.63;55.91;98429.81;10433598;28;20191;-78
2021/07/25 13:52:12;;;;;;;5.83;5.43;;;;;;;26.91;56.43;98424.75;10416668;28;20188;-77
2021/07/25 13:57:32;;;;;;;6.23;5.77;;;;;;;26.96;55.83;98421.09;10422109;28;20200;-77
2021/07/25 14:02:51;;;;;;;6.13;5.53;;;;;;;27.39;55.38;98419.97;10425621;28;20187;-77
2021/07/25 14:08:10;;;;;;;5.97;5.47;;;;;;;26.69;58.32;98417.19;10428225;28;20215;-77
2021/07/25 14:13:29;;;;;;;7.27;6.57;;;;;;;26.68;58.38;98409.25;10424636;28;20192;-78
2021/07/25 14:18:47;;;;;;;7.30;6.70;;;;;;;26.56;59.38;98421.16;10401619;28;20207;-77
2021/07/25 14:24:07;;;;;;;6.30;5.80;;;;;;;26.33;58.77;98426.09;10434646;28;20183;-78
2021/07/25 14:29:26;;;;;;;9.10;5.80;;;;;;;27.11;55.42;98422.28;10436504;28;20224;-79
2021/07/25 14:34:45;;;;;;;6.70;6.20;;;;;;;27.26;56.75;98419.84;10435870;28;20195;-77
2021/07/25 14:40:06;;;;;;;7.20;6.70;;;;;;;27.40;57.92;98427.16;10446720;28;20192;-79
2021/07/25 14:45:25;;;;;;;6.67;6.10;;;;;;;27.07;59.01;98438.75;10448991;28;20180;-78
2021/07/25 14:50:44;;;;;;;7.30;6.80;;;;;;;28.24;55.66;98431.41;10426554;28;20564;-79
2021/07/25 14:56:07;;;;;;;6.37;5.93;;;;;;;29.04;51.89;98444.94;10437743;28;20215;-79
2021/07/25 15:01:27;;;;;;;5.97;5.57;;;;;;;28.36;52.02;98442.06;10412827;28;20184;-78
2021/07/25 15:06:46;;;;;;;7.60;7.10;;;;;;;27.81;56.06;98444.75;10417061;28;20200;-80
2021/07/25 15:12:05;;;;;;;6.90;6.40;;;;;;;28.43;55.52;98433.72;10448559;28;20184;-79
2021/07/25 15:17:24;;;;;;;6.50;6.10;;;;;;;29.28;51.22;98434.22;10461335;28;20207;-79
2021/07/25 15:22:43;;;;;;;6.40;6.00;;;;;;;29.12;51.15;98426.03;10461613;28;20171;-78
2021/07/25 15:28:02;;;;;;;6.37;5.83;;;;;;;27.87;53.75;98425.66;10461154;28;20262;-78
2021/07/25 15:33:22;;;;;;;6.57;6.00;;;;;;;27.04;56.54;98419.25;10435000;28;20180;-78
2021/07/25 15:38:43;;;;;;;5.70;5.23;;;;;;;27.08;56.07;98423.34;10420065;28;20212;-79
2021/07/25 15:44:02;;;;;;;6.47;5.97;;;;;;;27.08;57.25;98431.06;10419200;28;20176;-78
2021/07/25 15:49:21;;;;;;;6.90;5.60;;;;;;;27.18;56.71;98432.25;10405295;28;20181;-77
2021/07/25 15:54:40;;;;;;;5.73;5.23;;;;;;;26.60;57.17;98424.44;10405006;28;20176;-77
2021/07/25 15:59:59;;;;;;;5.87;5.47;;;;;;;26.66;56.85;98418.22;10403403;28;20176;-78
2021/07/25 16:05:18;;;;;;;5.33;4.93;;;;;;;26.79;57.13;98411.97;10444036;28;20242;-78
2021/07/25 16:10:37;;;;;;;7.63;5.73;;;;;;;27.98;51.67;98411.41;10460754;28;20179;-77
2021/07/25 16:15:56;;;;;;;5.67;5.27;;;;;;;27.81;52.57;98408.78;10444117;28;20215;-77
2021/07/25 16:21:19;;;;;;;6.30;5.90;;;;;;;27.81;51.65;98399.53;10460552;28;20176;-76
2021/07/25 16:26:39;;;;;;;5.67;5.27;;;;;;;27.73;52.90;98398.59;10460323;28;20171;-78
2021/07/25 16:31:58;;;;;;;7.13;5.87;;;;;;;27.61;53.79;98391.50;10426351;28;20219;-78
2021/07/25 16:37:17;;;;;;;6.40;5.23;;;;;;;28.01;52.15;98382.06;10403550;28;20650;-78
2021/07/25 16:42:36;;;;;;;6.80;6.17;;;;;;;27.77;53.01;98385.69;10403531;28;20631;-77
2021/07/25 16:47:55;;;;;;;7.00;6.30;;;;;;;28.03;52.90;98387.97;10402048;28;20176;-76
2021/07/25 16:53:14;;;;;;;6.33;5.37;;;;;;;26.63;53.62;98388.25;10402959;28;20175;-78
2021/07/25 16:58:32;;;;;;;6.30;5.80;;;;;;;26.16;54.94;98377.47;10416109;28;20204;-77
2021/07/25 17:03:51;;;;;;;5.90;5.50;;;;;;;26.19;54.48;98382.09;10449224;28;20179;-76
2021/07/25 17:09:10;;;;;;;5.07;4.67;;;;;;;26.67;54.38;98390.78;10443425;28;20191;-76
2021/07/25 17:14:29;;;;;;;7.20;5.47;;;;;;;26.74;53.94;98385.34;10444787;28;20203;-77
2021/07/25 17:19:53;;;;;;;5.50;5.00;;;;;;;26.69;53.94;98382.56;10432989;28;20207;-78
2021/07/25 17:25:13;;;;;;;6.83;6.00;;;;;;;26.93;52.99;98374.94;10409525;28;20226;-76
2021/07/25 17:30:36;;;;;;;5.70;5.20;;;;;;;27.94;51.00;98385.50;10440404;28;20227;-78
2021/07/25 17:35:55;;;;;;;6.13;5.53;;;;;;;26.88;54.78;98372.94;10457477;28;20195;-78
2021/07/25 17:41:16;;;;;;;5.50;5.00;;;;;;;27.52;52.64;98372.09;10442330;28;20179;-78
2021/07/25 17:46:35;;;;;;;6.43;5.93;;;;;;;28.47;50.91;98369.09;10440752;28;20168;-77
2021/07/25 17:51:53;;;;;;;8.40;5.80;;;;;;;27.52;53.67;98372.09;10441978;28;20168;-78
2021/07/25 17:57:12;;;;;;;6.80;6.20;;;;;;;26.84;56.43;98372.44;10428253;28;20220;-77
2021/07/25 18:02:32;;;;;;;6.67;6.10;;;;;;;25.60;59.80;98375.41;10418656;28;20187;-79
2021/07/25 18:07:51;;;;;;;6.53;5.37;;;;;;;25.40;60.67;98386.97;10441196;28;20574;-77
2021/07/25 18:13:10;;;;;;;5.93;5.43;;;;;;;25.12;63.12;98386.22;10440054;28;20167;-77
2021/07/25 18:18:29;;;;;;;7.07;6.50;;;;;;;24.90;64.00;98395.94;10455586;28;20198;-76
2021/07/25 18:23:49;;;;;;;5.97;5.53;;;;;;;24.82;64.50;98390.06;10441070;28;20175;-77
2021/07/25 18:29:08;;;;;;;9.13;6.57;;;;;;;24.72;64.85;98391.59;10439460;28;20606;-78
2021/07/25 18:34:28;;;;;;;7.03;6.53;;;;;;;24.53;66.02;98395.41;10424957;28;20645;-77
2021/07/25 18:39:47;;;;;;;6.50;6.00;;;;;;;24.39;66.45;98408.38;10415770;28;20565;-75
2021/07/25 18:45:06;;;;;;;6.57;5.90;;;;;;;24.36;67.45;98417.81;10456605;28;20633;-77
2021/07/25 18:50:26;;;;;;;9.10;7.40;;;;;;;24.22;68.30;98416.00;10462526;28;20254;-76
2021/07/25 18:55:45;;;;;;;7.97;7.20;;;;;;;23.99;69.28;98424.84;10463833;28;20195;-76
2021/07/25 19:01:04;;;;;;;11.63;7.50;;;;;;;23.92;70.37;98435.81;10462209;28;20176;-76
2021/07/25 19:06:23;;;;;;;7.00;6.50;;;;;;;23.76;72.19;98445.69;10448309;28;20200;-76
2021/07/25 19:11:42;;;;;;;8.47;7.63;;;;;;;23.61;74.27;98461.16;10444545;28;20188;-76
2021/07/25 19:17:02;;;;;;;12.17;10.53;;;;;;;23.35;75.86;98460.47;10421587;28;20212;-77
2021/07/25 19:22:21;;;;;;;8.50;7.80;;;;;;;23.20;77.87;98470.28;10406663;28;20212;-77
2021/07/25 19:27:40;;;;;;;8.07;6.73;;;;;;;23.02;78.97;98479.81;10421620;28;20183;-76
2021/07/25 19:32:59;;;;;;;8.00;7.30;;;;;;;22.88;79.51;98482.72;10436959;28;20183;-76
2021/07/25 19:38:18;;;;;;;8.57;7.77;;;;;;;22.77;80.04;98505.84;10446985;28;20603;-77
2021/07/25 19:43:39;;;;;;;8.20;7.50;;;;;;;22.62;79.44;98499.56;10460794;28;20187;-77
2021/07/25 19:48:57;;;;;;;7.70;6.97;;;;;;;22.47;80.07;98512.13;10461975;28;20192;-77
2021/07/25 19:54:17;;;;;;;18.27;7.07;;;;;;;22.37;80.73;98521.19;10460595;28;20191;-77
2021/07/25 19:59:38;;;;;;;9.63;6.70;;;;;;;22.22;80.42;98520.47;10442363;28;20598;-78
2021/07/25 20:04:58;;;;;;;7.93;7.00;;;;;;;22.11;83.38;98511.91;10455125;28;20681;-77
2021/07/25 20:10:17;;;;;;;8.43;6.87;;;;;;;21.85;85.69;98525.81;10445948;28;20187;-77
2021/07/25 20:15:36;;;;;;;9.83;8.20;;;;;;;21.76;87.35;98537.16;10444640;28;20235;-77
2021/07/25 20:20:59;;;;;;;7.70;6.90;;;;;;;21.60;87.28;98544.50;10460893;28;20187;-78
2021/07/25 20:26:18;;;;;;;7.23;6.57;;;;;;;21.44;89.50;98539.41;10458905;28;20187;-77
2021/07/25 20:31:37;;;;;;;7.83;7.03;;;;;;;21.36;91.42;98555.03;10458558;28;20215;-77
2021/07/25 20:36:56;;;;;;;8.20;7.20;;;;;;;21.24;92.16;98545.69;10445014;28;20286;-77
2021/07/25 20:42:15;;;;;;;7.90;7.17;;;;;;;21.22;90.63;98553.03;10458248;28;20191;-77
2021/07/25 20:47:34;;;;;;;7.63;7.03;;;;;;;21.23;89.77;98551.78;10443553;28;20193;-76
2021/07/25 20:52:54;;;;;;;7.77;6.97;;;;;;;21.25;88.69;98547.25;10444502;28;20171;-76
2021/07/25 20:58:13;;;;;;;9.07;7.30;;;;;;;21.30;89.52;98552.16;10442578;28;20203;-77
2021/07/25 21:03:33;;;;;;;7.40;6.80;;;;;;;21.31;91.77;98564.13;10457988;28;20553;-77
2021/07/25 21:08:52;;;;;;;7.70;7.00;;;;;;;21.36;93.53;98571.84;10443090;28;20167;-77
2021/07/25 21:14:13;;;;;;;8.00;7.20;;;;;;;21.26;92.00;98565.56;10401239;28;20176;-76
2021/07/25 21:19:33;;;;;;;6.80;6.30;;;;;;;21.11;94.93;98555.63;10416732;28;20207;-78
2021/07/25 21:24:52;;;;;;;9.33;6.43;;;;;;;20.92;96.90;98566.22;10402250;28;20606;-77
2021/07/25 21:30:12;;;;;;;7.43;6.83;;;;;;;20.74;96.10;98578.78;10415113;28;20223;-77
2021/07/25 21:35:31;;;;;;;7.37;6.07;;;;;;;20.54;96.76;98576.63;10416567;28;20192;-77
2021/07/25 21:40:50;;;;;;;12.70;6.90;;;;;;;20.57;99.43;98589.66;10431439;28;20542;-77
2021/07/25 21:46:09;;;;;;;8.83;8.00;;;;;;;20.48;100.00;98589.72;10456406;28;20179;-78
2021/07/25 21:51:28;;;;;;;7.87;7.17;;;;;;;20.31;100.00;98588.59;10457233;28;20535;-76
2021/07/25 21:56:47;;;;;;;8.43;6.70;;;;;;;20.18;100.00;98596.44;10441622;28;20227;-77
2021/07/25 22:07:44;;;;;;;7.67;6.97;;;;;;;19.64;100.00;98595.91;10456652;28;20553;-76
2021/07/25 22:13:03;;;;;;;7.27;6.57;;;;;;;19.52;100.00;98594.06;10404501;28;20535;-78
2021/07/25 22:18:22;;;;;;;9.83;7.70;;;;;;;19.40;100.00;98589.47;10399451;28;20203;-76
2021/07/25 22:23:41;;;;;;;7.77;7.00;;;;;;;19.21;100.00;98587.22;10400136;28;20259;-77
2021/07/25 22:29:00;;;;;;;8.17;7.43;;;;;;;19.05;100.00;98583.94;10398514;28;20229;-77
2021/07/25 22:34:20;;;;;;;13.97;7.67;;;;;;;18.93;100.00;98584.91;10414124;28;20199;-77
2021/07/25 22:39:39;;;;;;;8.93;8.13;;;;;;;18.90;100.00;98580.25;10422484;28;20673;-77
2021/07/25 22:44:58;;;;;;;10.07;7.70;;;;;;;18.94;100.00;98575.31;10454507;28;20266;-77
2021/07/25 22:50:17;;;;;;;9.27;8.27;;;;;;;18.92;100.00;98572.22;10455721;28;20180;-77
2021/07/25 22:55:36;;;;;;;7.80;7.20;;;;;;;18.88;100.00;98566.00;10455486;28;20199;-77
2021/07/25 23:00:55;;;;;;;9.13;8.20;;;;;;;18.99;100.00;98558.72;10439179;28;20175;-78
2021/07/25 23:06:14;;;;;;;8.60;7.90;;;;;;;18.96;100.00;98556.88;10455166;28;20184;-77
2021/07/25 23:11:33;;;;;;;8.13;7.27;;;;;;;18.93;100.00;98562.63;10428348;28;20219;-77
2021/07/25 23:16:52;;;;;;;8.90;8.10;;;;;;;18.89;100.00;98556.41;10397778;28;20290;-77
2021/07/25 23:22:11;;;;;;;8.40;7.67;;;;;;;18.80;100.00;98553.63;10398984;28;20180;-77
2021/07/25 23:27:30;;;;;;;11.10;7.87;;;;;;;18.79;100.00;98554.88;10401613;28;20634;-77
2021/07/25 23:32:49;;;;;;;9.57;8.63;;;;;;;18.73;100.00;98560.31;10419412;28;20251;-76
2021/07/25 23:38:08;;;;;;;8.67;7.80;;;;;;;18.59;100.00;98551.81;10405930;28;20219;-77
2021/07/25 23:43:27;;;;;;;11.00;8.90;;;;;;;18.48;100.00;98560.63;10420286;28;20195;-77
2021/07/25 23:48:46;;;;;;;8.80;8.00;;;;;;;18.31;100.00;98555.06;10405768;28;20263;-76
2021/07/25 23:54:05;;;;;;;8.90;7.40;;;;;;;18.20;100.00;98549.13;10420565;28;20168;-77
2021/07/25 23:59:24;;;;;;;10.07;7.50;;;;;;;18.15;100.00;98544.19;10418584;28;20204;-77
